Connecticut River @ Hartford, Ct

Connecticut River at Hartford
 Total Drainage Area: 10,480 sq. miles 
 Drainage Area Controlled by Corps Dams: 1,570 sq. miles (15%) 
 Warning Flow/Stage: 71,050 cfs / 16.0 feet 
 Flood Flow/Stage: 112,500 cfs / 22.0 feet 
Date Time
(Eastern)
Stage
(ft)
Flow
(cfs)
CSM
May-28 12:30 pm 3.27 9,445 .9
May-28 11:30 am 3.03 8,605 .8
May-28 10:30 am 3.03 8,605 .8
May-28 09:30 am 3.19 9,165 .9
May-28 08:30 am 3.37 9,795 .9
May-28 07:30 am 3.56 10,460 1.0
May-28 06:30 am 3.75 11,125 1.1
May-28 05:30 am 3.93 11,755 1.1
May-28 04:30 am 4.07 12,210 1.2
May-28 03:30 am 4.19 12,570 1.2
May-28 02:30 am 4.29 12,870 1.2
May-28 01:30 am 4.27 12,810 1.2
May-28 12:30 am 3.97 11,895 1.1
May-27 11:30 pm 3.47 10,145 1.0
May-27 10:30 pm 2.93 8,255 .8
May-27 09:30 pm 2.67 7,345 .7
May-27 08:30 pm 2.73 7,555 .7
May-27 07:30 pm 2.86 8,010 .8
May-27 06:30 pm 3.00 8,500 .8
May-27 05:30 pm 3.14 8,990 .9
May-27 04:30 pm 3.28 9,480 .9
May-27 03:30 pm 3.39 9,865 .9
May-27 02:30 pm 3.50 10,250 1.0
May-27 01:30 pm 3.52 10,320 1.0
May-27 12:30 pm 3.29 9,515 .9
Report Generated May 28, 2022 04:42 pm